Time,TemperatureF,DewpointF,PressureIn,WindDirection,WindDirectionDegrees,WindSpeedMPH,WindSpeedGustMPH,Humidity,HourlyPrecipIn,Conditions,Clouds,dailyrainin,SolarRadiationWatts/m^2,SoftwareType,DateUTC
2013-07-21 00:00:00,73.0,72.0,-100.00,South,177,3.0,8.0,96,0.00,,,0.02,0.000000,,2013-07-21 04:00:00,
2013-07-21 00:01:00,73.0,72.0,-100.00,South,177,3.0,8.0,96,0.00,,,0.02,0.000000,,2013-07-21 04:01:00,
2013-07-21 00:32:00,73.0,71.0,-100.00,SW,230,4.0,7.0,95,0.00,,,0.02,0.000000,,2013-07-21 04:32:00,
2013-07-21 00:43:00,73.0,71.0,-100.00,SW,230,4.0,7.0,95,0.00,,,0.02,0.000000,,2013-07-21 04:43:00,
2013-07-21 00:53:00,73.0,71.0,-100.00,SW,230,4.0,7.0,95,0.00,,,0.02,0.000000,,2013-07-21 04:53:00,
2013-07-21 01:02:00,73.0,71.0,-100.00,SW,230,4.0,7.0,95,0.00,,,0.02,0.000000,,2013-07-21 05:02:00,
2013-07-21 01:32:00,72.0,70.0,-100.00,SSW,207,4.0,7.0,93,0.00,,,0.02,0.000000,,2013-07-21 05:32:00,
2013-07-21 01:42:00,72.0,70.0,-100.00,SSW,207,4.0,7.0,93,0.00,,,0.02,0.000000,,2013-07-21 05:42:00,
2013-07-21 01:52:00,72.0,70.0,-100.00,SSW,207,4.0,7.0,93,0.00,,,0.02,0.000000,,2013-07-21 05:52:00,
2013-07-21 02:01:00,72.0,70.0,-100.00,SSW,207,4.0,7.0,93,0.00,,,0.02,0.000000,,2013-07-21 06:01:00,
2013-07-21 02:32:00,72.0,70.0,-100.00,South,179,4.0,7.0,95,0.00,,,0.02,0.000000,,2013-07-21 06:32:00,
2013-07-21 02:43:00,72.0,70.0,-100.00,South,179,4.0,7.0,95,0.00,,,0.02,0.000000,,2013-07-21 06:43:00,
2013-07-21 02:53:00,72.0,70.0,-100.00,South,179,4.0,7.0,95,0.00,,,0.02,0.000000,,2013-07-21 06:53:00,
2013-07-21 03:01:00,72.0,70.0,-100.00,South,179,4.0,7.0,95,0.00,,,0.02,0.000000,,2013-07-21 07:01:00,
2013-07-21 03:32:00,71.0,70.0,-100.00,South,180,5.0,7.0,96,0.00,,,0.02,0.000000,,2013-07-21 07:32:00,
2013-07-21 03:43:00,71.0,70.0,-100.00,South,180,5.0,7.0,96,0.00,,,0.02,0.000000,,2013-07-21 07:43:00,
2013-07-21 03:53:00,71.0,70.0,-100.00,South,180,5.0,7.0,96,0.00,,,0.02,0.000000,,2013-07-21 07:53:00,
2013-07-21 04:02:00,71.0,70.0,-100.00,South,180,5.0,7.0,96,0.00,,,0.02,0.000000,,2013-07-21 08:02:00,
2013-07-21 04:33:00,71.0,70.0,-100.00,South,182,5.0,7.0,97,0.00,,,0.02,0.000000,,2013-07-21 08:33:00,
2013-07-21 04:43:00,71.0,70.0,-100.00,South,182,5.0,7.0,97,0.00,,,0.02,0.000000,,2013-07-21 08:43:00,
2013-07-21 04:52:00,71.0,70.0,-100.00,South,182,5.0,7.0,97,0.00,,,0.02,0.000000,,2013-07-21 08:52:00,
2013-07-21 05:02:00,71.0,70.0,-100.00,South,182,5.0,7.0,97,0.00,,,0.02,0.000000,,2013-07-21 09:02:00,
2013-07-21 05:32:00,70.0,69.0,-100.00,SW,226,3.0,7.0,98,0.00,,,0.02,0.000000,,2013-07-21 09:32:00,
2013-07-21 05:42:00,70.0,69.0,-100.00,SW,226,3.0,7.0,98,0.00,,,0.02,0.000000,,2013-07-21 09:42:00,
2013-07-21 05:52:00,70.0,69.0,-100.00,SW,226,3.0,7.0,98,0.00,,,0.02,0.000000,,2013-07-21 09:52:00,
2013-07-21 06:02:00,70.0,69.0,-100.00,SW,226,3.0,7.0,98,0.00,,,0.02,0.000000,,2013-07-21 10:02:00,
2013-07-21 06:32:00,70.0,69.0,-100.00,SSW,204,5.0,9.0,98,0.00,,,0.00,0.000000,,2013-07-21 10:32:00,
2013-07-21 06:43:00,70.0,69.0,-100.00,SSW,204,5.0,9.0,98,0.00,,,0.00,0.000000,,2013-07-21 10:43:00,
2013-07-21 06:52:00,70.0,69.0,-100.00,SSW,204,5.0,9.0,98,0.00,,,0.00,0.000000,,2013-07-21 10:52:00,
2013-07-21 07:02:00,70.0,69.0,-100.00,SSW,204,5.0,9.0,98,0.00,,,0.00,0.000000,,2013-07-21 11:02:00,
2013-07-21 07:33:00,70.0,70.0,-100.00,SSW,197,6.0,8.0,99,0.00,,,0.00,4.000000,,2013-07-21 11:33:00,
2013-07-21 07:43:00,70.0,70.0,-100.00,SSW,197,6.0,8.0,99,0.00,,,0.00,4.000000,,2013-07-21 11:43:00,
2013-07-21 07:52:00,70.0,70.0,-100.00,SSW,197,6.0,8.0,99,0.00,,,0.00,4.000000,,2013-07-21 11:52:00,
2013-07-21 08:01:00,70.0,70.0,-100.00,SSW,197,6.0,8.0,99,0.00,,,0.00,4.000000,,2013-07-21 12:01:00,
2013-07-21 08:32:00,72.0,72.0,-100.00,WSW,242,3.0,8.0,100,0.00,,,0.00,68.000000,,2013-07-21 12:32:00,
2013-07-21 08:43:00,72.0,72.0,-100.00,WSW,242,3.0,8.0,100,0.00,,,0.00,68.000000,,2013-07-21 12:43:00,
2013-07-21 08:53:00,72.0,72.0,-100.00,WSW,242,3.0,8.0,100,0.00,,,0.00,68.000000,,2013-07-21 12:53:00,
2013-07-21 09:02:00,72.0,72.0,-100.00,WSW,242,3.0,8.0,100,0.00,,,0.00,68.000000,,2013-07-21 13:02:00,
2013-07-21 09:33:00,73.0,71.0,-100.00,SSW,192,5.0,8.0,94,0.00,,,0.00,210.000000,,2013-07-21 13:33:00,
2013-07-21 09:43:00,73.0,71.0,-100.00,SSW,192,5.0,8.0,94,0.00,,,0.00,210.000000,,2013-07-21 13:43:00,
2013-07-21 09:53:00,73.0,71.0,-100.00,SSW,192,5.0,8.0,94,0.00,,,0.00,210.000000,,2013-07-21 13:53:00,
2013-07-21 10:01:00,73.0,71.0,-100.00,SSW,192,5.0,8.0,94,0.00,,,0.00,210.000000,,2013-07-21 14:01:00,
2013-07-21 10:32:00,76.0,74.0,-100.00,SW,219,4.0,7.0,92,0.00,,,0.00,199.000000,,2013-07-21 14:32:00,
2013-07-21 10:43:00,76.0,74.0,-100.00,SW,219,4.0,7.0,92,0.00,,,0.00,199.000000,,2013-07-21 14:43:00,
2013-07-21 10:53:00,76.0,74.0,-100.00,SW,219,4.0,7.0,92,0.00,,,0.00,199.000000,,2013-07-21 14:53:00,
2013-07-21 11:02:00,76.0,74.0,-100.00,SW,219,4.0,7.0,92,0.00,,,0.00,199.000000,,2013-07-21 15:02:00,
2013-07-21 11:32:00,79.0,74.0,-100.00,South,169,4.0,9.0,84,0.00,,,0.00,461.000000,,2013-07-21 15:32:00,
2013-07-21 11:43:00,79.0,74.0,-100.00,South,169,4.0,9.0,84,0.00,,,0.00,461.000000,,2013-07-21 15:43:00,
2013-07-21 11:53:00,79.0,74.0,-100.00,South,169,4.0,9.0,84,0.00,,,0.00,461.000000,,2013-07-21 15:53:00,
2013-07-21 12:01:00,79.0,74.0,-100.00,South,169,4.0,9.0,84,0.00,,,0.00,461.000000,,2013-07-21 16:01:00,
2013-07-21 12:32:00,81.0,72.0,-100.00,SSE,165,4.0,8.0,74,0.00,,,0.00,675.000000,,2013-07-21 16:32:00,
2013-07-21 12:43:00,81.0,72.0,-100.00,SSE,165,4.0,8.0,74,0.00,,,0.00,675.000000,,2013-07-21 16:43:00,
2013-07-21 12:52:00,81.0,72.0,-100.00,SSE,165,4.0,8.0,74,0.00,,,0.00,675.000000,,2013-07-21 16:52:00,
2013-07-21 13:02:00,81.0,72.0,-100.00,SSE,165,4.0,8.0,74,0.00,,,0.00,675.000000,,2013-07-21 17:02:00,
2013-07-21 13:33:00,83.0,72.0,-100.00,South,182,5.0,9.0,69,0.00,,,0.00,999.000000,,2013-07-21 17:33:00,
2013-07-21 13:43:00,83.0,72.0,-100.00,South,182,5.0,9.0,69,0.00,,,0.00,999.000000,,2013-07-21 17:43:00,
2013-07-21 13:53:00,83.0,72.0,-100.00,South,182,5.0,9.0,69,0.00,,,0.00,999.000000,,2013-07-21 17:53:00,
2013-07-21 14:01:00,83.0,72.0,-100.00,South,182,5.0,9.0,69,0.00,,,0.00,999.000000,,2013-07-21 18:01:00,
2013-07-21 14:32:00,83.0,73.0,-100.00,SSE,159,5.0,10.0,71,0.00,,,0.00,733.000000,,2013-07-21 18:32:00,
2013-07-21 14:43:00,83.0,73.0,-100.00,SSE,159,5.0,10.0,71,0.00,,,0.00,733.000000,,2013-07-21 18:43:00,
2013-07-21 14:52:00,83.0,73.0,-100.00,SSE,159,5.0,10.0,71,0.00,,,0.00,733.000000,,2013-07-21 18:52:00,
2013-07-21 15:01:00,83.0,73.0,-100.00,SSE,159,5.0,10.0,71,0.00,,,0.00,733.000000,,2013-07-21 19:01:00,
2013-07-21 15:32:00,83.0,73.0,-100.00,SSW,199,3.0,7.0,72,0.00,,,0.00,420.000000,,2013-07-21 19:32:00,
2013-07-21 15:42:00,83.0,73.0,-100.00,SSW,199,3.0,7.0,72,0.00,,,0.00,420.000000,,2013-07-21 19:42:00,
2013-07-21 15:52:00,83.0,73.0,-100.00,SSW,199,3.0,7.0,72,0.00,,,0.00,420.000000,,2013-07-21 19:52:00,
2013-07-21 16:02:00,83.0,73.0,-100.00,SSW,199,3.0,7.0,72,0.00,,,0.00,420.000000,,2013-07-21 20:02:00,
2013-07-21 16:32:00,77.0,67.0,-100.00,NW,325,7.0,12.0,72,0.00,,,0.00,376.000000,,2013-07-21 20:32:00,
2013-07-21 16:43:00,77.0,67.0,-100.00,NW,325,7.0,12.0,72,0.00,,,0.00,376.000000,,2013-07-21 20:43:00,
2013-07-21 16:52:00,77.0,67.0,-100.00,NW,325,7.0,12.0,72,0.00,,,0.00,376.000000,,2013-07-21 20:52:00,
2013-07-21 17:01:00,77.0,67.0,-100.00,NW,325,7.0,12.0,72,0.00,,,0.00,376.000000,,2013-07-21 21:01:00,
2013-07-21 17:32:00,71.0,71.0,-100.00,NNW,348,4.0,12.0,99,0.42,,,0.42,93.000000,,2013-07-21 21:32:00,
2013-07-21 17:43:00,71.0,71.0,-100.00,NNW,348,4.0,12.0,99,0.42,,,0.42,93.000000,,2013-07-21 21:43:00,
2013-07-21 17:52:00,71.0,71.0,-100.00,NNW,348,4.0,12.0,99,0.42,,,0.42,93.000000,,2013-07-21 21:52:00,
2013-07-21 18:01:00,71.0,71.0,-100.00,NNW,348,4.0,12.0,99,0.42,,,0.42,93.000000,,2013-07-21 22:01:00,
2013-07-21 18:32:00,74.0,72.0,-100.00,East,80,3.0,5.0,94,0.00,,,0.42,229.000000,,2013-07-21 22:32:00,
2013-07-21 18:43:00,74.0,72.0,-100.00,East,80,3.0,5.0,94,0.00,,,0.42,229.000000,,2013-07-21 22:43:00,
2013-07-21 18:52:00,74.0,72.0,-100.00,East,80,3.0,5.0,94,0.00,,,0.42,229.000000,,2013-07-21 22:52:00,
2013-07-21 19:02:00,74.0,72.0,-100.00,East,80,3.0,5.0,94,0.00,,,0.42,229.000000,,2013-07-21 23:02:00,
2013-07-21 19:32:00,74.0,71.0,-100.00,ENE,78,2.0,5.0,91,0.00,,,0.42,246.000000,,2013-07-21 23:32:00,
2013-07-21 19:43:00,74.0,71.0,-100.00,ENE,78,2.0,5.0,91,0.00,,,0.42,246.000000,,2013-07-21 23:43:00,
2013-07-21 19:53:00,74.0,71.0,-100.00,ENE,78,2.0,5.0,91,0.00,,,0.42,246.000000,,2013-07-21 23:53:00,
2013-07-21 20:01:00,74.0,71.0,-100.00,ENE,78,2.0,5.0,91,0.00,,,0.42,246.000000,,2013-07-22 00:01:00,
2013-07-21 20:32:00,72.0,71.0,-100.00,West,261,3.0,5.0,98,0.00,,,0.42,48.000000,,2013-07-22 00:32:00,
2013-07-21 20:42:00,72.0,71.0,-100.00,West,261,3.0,5.0,98,0.00,,,0.42,48.000000,,2013-07-22 00:42:00,
2013-07-21 20:53:00,72.0,71.0,-100.00,West,261,3.0,5.0,98,0.00,,,0.42,48.000000,,2013-07-22 00:53:00,
2013-07-21 21:02:00,72.0,71.0,-100.00,West,261,3.0,5.0,98,0.00,,,0.42,48.000000,,2013-07-22 01:02:00,
2013-07-21 21:32:00,71.0,71.0,-100.00,SSE,162,5.0,8.0,99,0.04,,,0.46,7.000000,,2013-07-22 01:32:00,
2013-07-21 21:42:00,71.0,71.0,-100.00,SSE,162,5.0,8.0,99,0.04,,,0.46,7.000000,,2013-07-22 01:42:00,
2013-07-21 21:52:00,71.0,71.0,-100.00,SSE,162,5.0,8.0,99,0.04,,,0.46,7.000000,,2013-07-22 01:52:00,
2013-07-21 22:02:00,71.0,71.0,-100.00,SSE,162,5.0,8.0,99,0.04,,,0.46,7.000000,,2013-07-22 02:02:00,
2013-07-21 22:32:00,71.0,71.0,-100.00,SSE,153,4.0,8.0,99,0.00,,,0.46,0.000000,,2013-07-22 02:32:00,
2013-07-21 22:43:00,71.0,71.0,-100.00,SSE,153,4.0,8.0,99,0.00,,,0.46,0.000000,,2013-07-22 02:43:00,
2013-07-21 22:52:00,71.0,71.0,-100.00,SSE,153,4.0,8.0,99,0.00,,,0.46,0.000000,,2013-07-22 02:52:00,
2013-07-21 23:01:00,71.0,71.0,-100.00,SSE,153,4.0,8.0,99,0.00,,,0.46,0.000000,,2013-07-22 03:01:00,
2013-07-21 23:33:00,71.0,71.0,-100.00,SW,214,5.0,8.0,99,0.00,,,0.46,0.000000,,2013-07-22 03:33:00,
2013-07-21 23:43:00,71.0,71.0,-100.00,SW,214,5.0,8.0,99,0.00,,,0.46,0.000000,,2013-07-22 03:43:00,
2013-07-21 23:53:00,71.0,71.0,-100.00,SW,214,5.0,8.0,99,0.00,,,0.46,0.000000,,2013-07-22 03:53:00,